sensor_id;sensor_type;location;lat;lon;timestamp;P1;durP1;ratioP1;P2;durP2;ratioP2
46282;SDS011;32017;43.700;11.820;2023-04-24T00:01:51;2.47;;;2.38;;
46282;SDS011;32017;43.700;11.820;2023-04-24T00:04:12;3.17;;;2.25;;
46282;SDS011;32017;43.700;11.820;2023-04-24T00:06:36;2.25;;;2.15;;
46282;SDS011;32017;43.700;11.820;2023-04-24T00:09:01;3.00;;;2.90;;
46282;SDS011;32017;43.700;11.820;2023-04-24T00:11:21;2.92;;;2.83;;
46282;SDS011;32017;43.700;11.820;2023-04-24T00:13:41;2.30;;;2.20;;
46282;SDS011;32017;43.700;11.820;2023-04-24T00:16:01;2.70;;;2.50;;
46282;SDS011;32017;43.700;11.820;2023-04-24T00:18:22;3.42;;;2.80;;
46282;SDS011;32017;43.700;11.820;2023-04-24T00:20:42;2.80;;;2.70;;
46282;SDS011;32017;43.700;11.820;2023-04-24T00:23:03;2.42;;;2.33;;
46282;SDS011;32017;43.700;11.820;2023-04-24T00:25:23;2.00;;;1.90;;
46282;SDS011;32017;43.700;11.820;2023-04-24T00:27:43;2.38;;;2.28;;
46282;SDS011;32017;43.700;11.820;2023-04-24T00:30:03;2.60;;;2.50;;
46282;SDS011;32017;43.700;11.820;2023-04-24T00:32:24;3.05;;;2.13;;
46282;SDS011;32017;43.700;11.820;2023-04-24T00:34:44;1.90;;;1.90;;
46282;SDS011;32017;43.700;11.820;2023-04-24T00:37:04;2.95;;;1.90;;
46282;SDS011;32017;43.700;11.820;2023-04-24T00:39:25;2.70;;;2.50;;
46282;SDS011;32017;43.700;11.820;2023-04-24T00:41:45;5.50;;;2.58;;
46282;SDS011;32017;43.700;11.820;2023-04-24T00:44:06;4.10;;;2.78;;
46282;SDS011;32017;43.700;11.820;2023-04-24T00:46:27;3.00;;;2.90;;
46282;SDS011;32017;43.700;11.820;2023-04-24T00:48:47;3.00;;;3.00;;
46282;SDS011;32017;43.700;11.820;2023-04-24T00:51:08;4.10;;;3.90;;
46282;SDS011;32017;43.700;11.820;2023-04-24T00:53:28;3.97;;;3.88;;
46282;SDS011;32017;43.700;11.820;2023-04-24T00:55:48;4.03;;;3.83;;
46282;SDS011;32017;43.700;11.820;2023-04-24T00:58:08;4.75;;;4.45;;
46282;SDS011;32017;43.700;11.820;2023-04-24T01:00:29;4.38;;;4.00;;
46282;SDS011;32017;43.700;11.820;2023-04-24T01:02:57;4.63;;;4.05;;
46282;SDS011;32017;43.700;11.820;2023-04-24T01:05:18;4.03;;;3.85;;
46282;SDS011;32017;43.700;11.820;2023-04-24T01:07:39;3.33;;;3.13;;
46282;SDS011;32017;43.700;11.820;2023-04-24T01:09:59;4.47;;;3.83;;
46282;SDS011;32017;43.700;11.820;2023-04-24T01:12:19;4.35;;;4.15;;
46282;SDS011;32017;43.700;11.820;2023-04-24T01:14:39;3.97;;;3.80;;
46282;SDS011;32017;43.700;11.820;2023-04-24T01:16:59;4.35;;;4.25;;
46282;SDS011;32017;43.700;11.820;2023-04-24T01:19:20;4.60;;;4.30;;
46282;SDS011;32017;43.700;11.820;2023-04-24T01:21:41;5.63;;;5.22;;
46282;SDS011;32017;43.700;11.820;2023-04-24T01:24:02;3.80;;;3.70;;
46282;SDS011;32017;43.700;11.820;2023-04-24T01:26:23;4.32;;;4.20;;
46282;SDS011;32017;43.700;11.820;2023-04-24T01:28:44;5.03;;;4.60;;
46282;SDS011;32017;43.700;11.820;2023-04-24T01:31:05;4.57;;;4.47;;
46282;SDS011;32017;43.700;11.820;2023-04-24T01:33:26;3.85;;;3.75;;
46282;SDS011;32017;43.700;11.820;2023-04-24T01:35:46;5.03;;;4.88;;
46282;SDS011;32017;43.700;11.820;2023-04-24T01:38:07;4.22;;;4.03;;
46282;SDS011;32017;43.700;11.820;2023-04-24T01:40:27;4.55;;;4.43;;
46282;SDS011;32017;43.700;11.820;2023-04-24T01:42:47;4.82;;;4.45;;
46282;SDS011;32017;43.700;11.820;2023-04-24T01:45:09;4.97;;;4.57;;
46282;SDS011;32017;43.700;11.820;2023-04-24T01:47:29;4.82;;;4.53;;
46282;SDS011;32017;43.700;11.820;2023-04-24T01:49:50;4.07;;;3.92;;
46282;SDS011;32017;43.700;11.820;2023-04-24T01:52:10;4.32;;;3.95;;
46282;SDS011;32017;43.700;11.820;2023-04-24T01:54:30;4.50;;;4.30;;
46282;SDS011;32017;43.700;11.820;2023-04-24T01:56:50;4.18;;;3.92;;
46282;SDS011;32017;43.700;11.820;2023-04-24T01:59:11;4.10;;;3.90;;
46282;SDS011;32017;43.700;11.820;2023-04-24T02:01:34;4.47;;;4.25;;
46282;SDS011;32017;43.700;11.820;2023-04-24T02:03:58;3.53;;;3.25;;
46282;SDS011;32017;43.700;11.820;2023-04-24T02:06:18;3.90;;;3.58;;
46282;SDS011;32017;43.700;11.820;2023-04-24T02:08:38;5.35;;;4.93;;
46282;SDS011;32017;43.700;11.820;2023-04-24T02:10:59;4.43;;;4.28;;
46282;SDS011;32017;43.700;11.820;2023-04-24T02:13:21;5.93;;;5.00;;
46282;SDS011;32017;43.700;11.820;2023-04-24T02:15:41;5.30;;;4.25;;
46282;SDS011;32017;43.700;11.820;2023-04-24T02:18:01;3.70;;;3.53;;
46282;SDS011;32017;43.700;11.820;2023-04-24T02:20:22;4.47;;;4.28;;
46282;SDS011;32017;43.700;11.820;2023-04-24T02:22:42;4.10;;;3.80;;
46282;SDS011;32017;43.700;11.820;2023-04-24T02:25:02;4.55;;;4.25;;
46282;SDS011;32017;43.700;11.820;2023-04-24T02:27:23;4.28;;;4.18;;
46282;SDS011;32017;43.700;11.820;2023-04-24T02:29:43;5.70;;;3.95;;
46282;SDS011;32017;43.700;11.820;2023-04-24T02:32:04;5.13;;;4.68;;
46282;SDS011;32017;43.700;11.820;2023-04-24T02:34:24;4.20;;;3.90;;
46282;SDS011;32017;43.700;11.820;2023-04-24T02:36:44;4.22;;;4.03;;
46282;SDS011;32017;43.700;11.820;2023-04-24T02:39:05;3.72;;;3.42;;
46282;SDS011;32017;43.700;11.820;2023-04-24T02:41:25;4.00;;;3.70;;
46282;SDS011;32017;43.700;11.820;2023-04-24T02:43:50;3.80;;;3.70;;
46282;SDS011;32017;43.700;11.820;2023-04-24T02:46:10;4.15;;;3.90;;
46282;SDS011;32017;43.700;11.820;2023-04-24T02:48:30;2.90;;;2.90;;
46282;SDS011;32017;43.700;11.820;2023-04-24T02:50:50;3.63;;;3.42;;
46282;SDS011;32017;43.700;11.820;2023-04-24T02:53:10;3.80;;;3.63;;
46282;SDS011;32017;43.700;11.820;2023-04-24T02:55:31;4.68;;;4.10;;
46282;SDS011;32017;43.700;11.820;2023-04-24T02:57:51;3.10;;;2.97;;
46282;SDS011;32017;43.700;11.820;2023-04-24T03:00:11;4.05;;;3.83;;
46282;SDS011;32017;43.700;11.820;2023-04-24T03:02:32;5.47;;;5.20;;
46282;SDS011;32017;43.700;11.820;2023-04-24T03:04:53;4.07;;;3.97;;
46282;SDS011;32017;43.700;11.820;2023-04-24T03:07:14;4.55;;;4.28;;
46282;SDS011;32017;43.700;11.820;2023-04-24T03:09:35;4.57;;;4.43;;
46282;SDS011;32017;43.700;11.820;2023-04-24T03:11:55;4.28;;;4.00;;
46282;SDS011;32017;43.700;11.820;2023-04-24T03:14:16;4.38;;;4.20;;
46282;SDS011;32017;43.700;11.820;2023-04-24T03:16:36;3.67;;;3.50;;
46282;SDS011;32017;43.700;11.820;2023-04-24T03:18:57;3.55;;;3.45;;
46282;SDS011;32017;43.700;11.820;2023-04-24T03:21:17;4.32;;;4.00;;
46282;SDS011;32017;43.700;11.820;2023-04-24T03:23:38;4.43;;;4.03;;
46282;SDS011;32017;43.700;11.820;2023-04-24T03:25:58;4.03;;;3.55;;
46282;SDS011;32017;43.700;11.820;2023-04-24T03:28:18;4.82;;;4.53;;
46282;SDS011;32017;43.700;11.820;2023-04-24T03:30:38;4.65;;;4.22;;
46282;SDS011;32017;43.700;11.820;2023-04-24T03:32:59;9.63;;;5.65;;
46282;SDS011;32017;43.700;11.820;2023-04-24T03:35:19;6.95;;;6.20;;
46282;SDS011;32017;43.700;11.820;2023-04-24T03:37:41;12.05;;;7.70;;
46282;SDS011;32017;43.700;11.820;2023-04-24T03:40:01;5.22;;;5.03;;
46282;SDS011;32017;43.700;11.820;2023-04-24T03:42:22;6.38;;;6.03;;
46282;SDS011;32017;43.700;11.820;2023-04-24T03:44:42;8.98;;;6.65;;
46282;SDS011;32017;43.700;11.820;2023-04-24T03:47:02;5.72;;;5.35;;
46282;SDS011;32017;43.700;11.820;2023-04-24T03:49:23;6.90;;;5.32;;
46282;SDS011;32017;43.700;11.820;2023-04-24T03:51:43;5.43;;;5.13;;
46282;SDS011;32017;43.700;11.820;2023-04-24T03:54:04;5.95;;;5.43;;
46282;SDS011;32017;43.700;11.820;2023-04-24T03:56:24;6.38;;;6.07;;
46282;SDS011;32017;43.700;11.820;2023-04-24T03:58:44;6.28;;;6.05;;
46282;SDS011;32017;43.700;11.820;2023-04-24T04:01:04;6.70;;;6.38;;
46282;SDS011;32017;43.700;11.820;2023-04-24T04:03:25;5.93;;;5.45;;
46282;SDS011;32017;43.700;11.820;2023-04-24T04:05:46;6.38;;;5.78;;
46282;SDS011;32017;43.700;11.820;2023-04-24T04:08:06;6.28;;;5.93;;
46282;SDS011;32017;43.700;11.820;2023-04-24T04:10:27;7.10;;;5.88;;
46282;SDS011;32017;43.700;11.820;2023-04-24T04:12:47;7.03;;;6.68;;
46282;SDS011;32017;43.700;11.820;2023-04-24T04:15:07;8.60;;;7.15;;
46282;SDS011;32017;43.700;11.820;2023-04-24T04:17:27;7.38;;;6.85;;
46282;SDS011;32017;43.700;11.820;2023-04-24T04:19:47;8.45;;;7.60;;
46282;SDS011;32017;43.700;11.820;2023-04-24T04:22:07;8.13;;;7.38;;
46282;SDS011;32017;43.700;11.820;2023-04-24T04:24:28;7.97;;;6.88;;
46282;SDS011;32017;43.700;11.820;2023-04-24T04:26:48;6.88;;;6.30;;
46282;SDS011;32017;43.700;11.820;2023-04-24T04:29:10;7.38;;;6.03;;
46282;SDS011;32017;43.700;11.820;2023-04-24T04:31:31;5.95;;;5.15;;
46282;SDS011;32017;43.700;11.820;2023-04-24T04:33:51;6.10;;;5.57;;
46282;SDS011;32017;43.700;11.820;2023-04-24T04:36:11;6.03;;;5.70;;
46282;SDS011;32017;43.700;11.820;2023-04-24T04:38:31;6.95;;;5.53;;
46282;SDS011;32017;43.700;11.820;2023-04-24T04:40:52;6.22;;;5.70;;
46282;SDS011;32017;43.700;11.820;2023-04-24T04:43:12;6.13;;;5.53;;
46282;SDS011;32017;43.700;11.820;2023-04-24T04:45:34;7.60;;;5.68;;
46282;SDS011;32017;43.700;11.820;2023-04-24T04:47:54;6.45;;;5.38;;
46282;SDS011;32017;43.700;11.820;2023-04-24T04:50:14;5.05;;;4.60;;
46282;SDS011;32017;43.700;11.820;2023-04-24T04:52:36;8.43;;;5.45;;
46282;SDS011;32017;43.700;11.820;2023-04-24T04:54:56;5.68;;;5.18;;
46282;SDS011;32017;43.700;11.820;2023-04-24T04:57:16;6.03;;;5.32;;
46282;SDS011;32017;43.700;11.820;2023-04-24T04:59:36;5.35;;;5.03;;
46282;SDS011;32017;43.700;11.820;2023-04-24T05:01:56;6.20;;;5.70;;
46282;SDS011;32017;43.700;11.820;2023-04-24T05:04:16;5.25;;;5.15;;
46282;SDS011;32017;43.700;11.820;2023-04-24T05:06:37;8.25;;;5.63;;
46282;SDS011;32017;43.700;11.820;2023-04-24T05:08:57;8.63;;;5.75;;
46282;SDS011;32017;43.700;11.820;2023-04-24T05:11:17;7.38;;;5.38;;
46282;SDS011;32017;43.700;11.820;2023-04-24T05:13:37;5.50;;;5.30;;
46282;SDS011;32017;43.700;11.820;2023-04-24T05:16:00;6.38;;;5.93;;
46282;SDS011;32017;43.700;11.820;2023-04-24T05:18:20;6.18;;;5.75;;
46282;SDS011;32017;43.700;11.820;2023-04-24T05:20:40;6.18;;;5.68;;
46282;SDS011;32017;43.700;11.820;2023-04-24T05:23:03;6.18;;;5.97;;
46282;SDS011;32017;43.700;11.820;2023-04-24T05:25:23;8.18;;;7.40;;
46282;SDS011;32017;43.700;11.820;2023-04-24T05:27:43;8.90;;;8.10;;
46282;SDS011;32017;43.700;11.820;2023-04-24T05:30:05;10.10;;;9.18;;
46282;SDS011;32017;43.700;11.820;2023-04-24T05:32:25;8.10;;;7.07;;
46282;SDS011;32017;43.700;11.820;2023-04-24T05:34:46;8.38;;;7.72;;
46282;SDS011;32017;43.700;11.820;2023-04-24T05:37:06;8.85;;;8.20;;
46282;SDS011;32017;43.700;11.820;2023-04-24T05:39:29;8.60;;;7.85;;
46282;SDS011;32017;43.700;11.820;2023-04-24T05:41:49;10.65;;;8.15;;
46282;SDS011;32017;43.700;11.820;2023-04-24T05:44:09;7.07;;;6.60;;
46282;SDS011;32017;43.700;11.820;2023-04-24T05:46:29;7.53;;;6.90;;
46282;SDS011;32017;43.700;11.820;2023-04-24T05:48:49;10.73;;;7.80;;
46282;SDS011;32017;43.700;11.820;2023-04-24T05:51:09;14.50;;;8.95;;
46282;SDS011;32017;43.700;11.820;2023-04-24T05:53:29;9.50;;;8.60;;
46282;SDS011;32017;43.700;11.820;2023-04-24T05:55:49;8.20;;;7.13;;
46282;SDS011;32017;43.700;11.820;2023-04-24T05:58:10;7.82;;;7.35;;
46282;SDS011;32017;43.700;11.820;2023-04-24T06:00:30;8.73;;;8.07;;
46282;SDS011;32017;43.700;11.820;2023-04-24T06:02:50;7.78;;;7.05;;
46282;SDS011;32017;43.700;11.820;2023-04-24T06:05:12;9.57;;;7.23;;
46282;SDS011;32017;43.700;11.820;2023-04-24T06:07:33;8.07;;;5.80;;
46282;SDS011;32017;43.700;11.820;2023-04-24T06:09:53;5.03;;;4.43;;
46282;SDS011;32017;43.700;11.820;2023-04-24T06:12:14;5.13;;;3.97;;
46282;SDS011;32017;43.700;11.820;2023-04-24T06:14:34;5.95;;;5.43;;
46282;SDS011;32017;43.700;11.820;2023-04-24T06:16:54;6.65;;;5.25;;
46282;SDS011;32017;43.700;11.820;2023-04-24T06:19:14;4.63;;;4.25;;
46282;SDS011;32017;43.700;11.820;2023-04-24T06:21:34;5.22;;;4.43;;
46282;SDS011;32017;43.700;11.820;2023-04-24T06:23:54;4.88;;;4.47;;
46282;SDS011;32017;43.700;11.820;2023-04-24T06:26:15;3.92;;;3.58;;
46282;SDS011;32017;43.700;11.820;2023-04-24T06:28:36;3.90;;;3.20;;
46282;SDS011;32017;43.700;11.820;2023-04-24T06:30:56;2.58;;;2.45;;
46282;SDS011;32017;43.700;11.820;2023-04-24T06:33:16;2.85;;;2.80;;
46282;SDS011;32017;43.700;11.820;2023-04-24T06:35:41;2.60;;;2.40;;
46282;SDS011;32017;43.700;11.820;2023-04-24T06:38:02;1.75;;;1.65;;
46282;SDS011;32017;43.700;11.820;2023-04-24T06:40:22;2.97;;;1.80;;
46282;SDS011;32017;43.700;11.820;2023-04-24T06:42:42;2.15;;;2.05;;
46282;SDS011;32017;43.700;11.820;2023-04-24T06:45:02;2.75;;;2.58;;
46282;SDS011;32017;43.700;11.820;2023-04-24T06:47:23;2.97;;;2.72;;
46282;SDS011;32017;43.700;11.820;2023-04-24T06:49:43;5.55;;;3.00;;
46282;SDS011;32017;43.700;11.820;2023-04-24T06:52:04;2.60;;;2.50;;
46282;SDS011;32017;43.700;11.820;2023-04-24T06:54:24;7.40;;;2.50;;
46282;SDS011;32017;43.700;11.820;2023-04-24T06:56:44;1.60;;;1.50;;
46282;SDS011;32017;43.700;11.820;2023-04-24T06:59:07;1.75;;;1.65;;
46282;SDS011;32017;43.700;11.820;2023-04-24T07:01:27;2.33;;;2.15;;
46282;SDS011;32017;43.700;11.820;2023-04-24T07:03:47;4.35;;;1.17;;
46282;SDS011;32017;43.700;11.820;2023-04-24T07:06:08;1.45;;;1.35;;
46282;SDS011;32017;43.700;11.820;2023-04-24T07:08:32;4.32;;;1.70;;
46282;SDS011;32017;43.700;11.820;2023-04-24T07:10:52;1.90;;;1.30;;
46282;SDS011;32017;43.700;11.820;2023-04-24T07:13:12;1.45;;;1.33;;
46282;SDS011;32017;43.700;11.820;2023-04-24T07:15:32;2.85;;;1.92;;
46282;SDS011;32017;43.700;11.820;2023-04-24T07:17:53;26.10;;;4.32;;
46282;SDS011;32017;43.700;11.820;2023-04-24T07:20:13;2.03;;;1.20;;
46282;SDS011;32017;43.700;11.820;2023-04-24T07:22:33;1.48;;;1.38;;
46282;SDS011;32017;43.700;11.820;2023-04-24T07:24:53;2.33;;;1.45;;
46282;SDS011;32017;43.700;11.820;2023-04-24T07:27:14;1.40;;;1.30;;
46282;SDS011;32017;43.700;11.820;2023-04-24T07:29:34;1.08;;;1.08;;
46282;SDS011;32017;43.700;11.820;2023-04-24T07:31:54;1.10;;;1.10;;
46282;SDS011;32017;43.700;11.820;2023-04-24T07:34:15;1.05;;;1.05;;
46282;SDS011;32017;43.700;11.820;2023-04-24T07:36:36;3.88;;;1.30;;
46282;SDS011;32017;43.700;11.820;2023-04-24T07:38:57;1.30;;;1.30;;
46282;SDS011;32017;43.700;11.820;2023-04-24T07:41:17;2.13;;;1.45;;
46282;SDS011;32017;43.700;11.820;2023-04-24T07:43:37;2.85;;;1.17;;
46282;SDS011;32017;43.700;11.820;2023-04-24T07:45:58;1.70;;;1.35;;
46282;SDS011;32017;43.700;11.820;2023-04-24T07:48:18;1.10;;;1.10;;
46282;SDS011;32017;43.700;11.820;2023-04-24T07:50:40;12.43;;;5.63;;
46282;SDS011;32017;43.700;11.820;2023-04-24T07:53:00;2.55;;;1.70;;
46282;SDS011;32017;43.700;11.820;2023-04-24T07:55:20;2.85;;;2.65;;
46282;SDS011;32017;43.700;11.820;2023-04-24T07:57:43;2.85;;;2.50;;
46282;SDS011;32017;43.700;11.820;2023-04-24T08:00:04;1.40;;;1.27;;
46282;SDS011;32017;43.700;11.820;2023-04-24T08:02:25;1.02;;;1.00;;
46282;SDS011;32017;43.700;11.820;2023-04-24T08:04:46;1.58;;;1.48;;
46282;SDS011;32017;43.700;11.820;2023-04-24T08:07:06;1.55;;;1.45;;
46282;SDS011;32017;43.700;11.820;2023-04-24T08:09:26;1.20;;;1.10;;
46282;SDS011;32017;43.700;11.820;2023-04-24T08:11:46;2.53;;;1.20;;
46282;SDS011;32017;43.700;11.820;2023-04-24T08:14:07;1.00;;;1.00;;
46282;SDS011;32017;43.700;11.820;2023-04-24T08:16:27;1.35;;;1.33;;
46282;SDS011;32017;43.700;11.820;2023-04-24T08:18:47;1.30;;;1.30;;
46282;SDS011;32017;43.700;11.820;2023-04-24T08:21:07;2.05;;;1.00;;
46282;SDS011;32017;43.700;11.820;2023-04-24T08:23:27;1.10;;;1.10;;
46282;SDS011;32017;43.700;11.820;2023-04-24T08:25:48;1.30;;;1.20;;
46282;SDS011;32017;43.700;11.820;2023-04-24T08:28:08;1.17;;;1.10;;
46282;SDS011;32017;43.700;11.820;2023-04-24T08:30:30;1.48;;;1.10;;
46282;SDS011;32017;43.700;11.820;2023-04-24T08:32:50;2.15;;;1.10;;
46282;SDS011;32017;43.700;11.820;2023-04-24T08:35:10;1.45;;;1.00;;
46282;SDS011;32017;43.700;11.820;2023-04-24T08:37:30;1.10;;;1.00;;
46282;SDS011;32017;43.700;11.820;2023-04-24T08:39:50;1.08;;;1.00;;
46282;SDS011;32017;43.700;11.820;2023-04-24T08:42:11;1.00;;;1.00;;
46282;SDS011;32017;43.700;11.820;2023-04-24T08:44:32;1.10;;;1.10;;
46282;SDS011;32017;43.700;11.820;2023-04-24T08:46:52;2.15;;;0.93;;
46282;SDS011;32017;43.700;11.820;2023-04-24T08:49:13;1.40;;;1.02;;
46282;SDS011;32017;43.700;11.820;2023-04-24T08:51:36;1.20;;;1.20;;
46282;SDS011;32017;43.700;11.820;2023-04-24T08:53:57;2.77;;;1.00;;
46282;SDS011;32017;43.700;11.820;2023-04-24T08:56:17;1.00;;;1.00;;
46282;SDS011;32017;43.700;11.820;2023-04-24T08:58:37;1.23;;;1.23;;
46282;SDS011;32017;43.700;11.820;2023-04-24T09:00:58;1.38;;;1.15;;
46282;SDS011;32017;43.700;11.820;2023-04-24T09:03:20;1.77;;;1.10;;
46282;SDS011;32017;43.700;11.820;2023-04-24T09:05:41;1.20;;;1.20;;
46282;SDS011;32017;43.700;11.820;2023-04-24T09:08:05;7.00;;;1.13;;
46282;SDS011;32017;43.700;11.820;2023-04-24T09:10:25;1.10;;;1.10;;
46282;SDS011;32017;43.700;11.820;2023-04-24T09:12:47;1.77;;;1.08;;
46282;SDS011;32017;43.700;11.820;2023-04-24T09:15:07;1.85;;;1.00;;
46282;SDS011;32017;43.700;11.820;2023-04-24T09:17:28;0.98;;;0.98;;
46282;SDS011;32017;43.700;11.820;2023-04-24T09:19:48;1.77;;;1.15;;
46282;SDS011;32017;43.700;11.820;2023-04-24T09:22:09;3.90;;;1.35;;
46282;SDS011;32017;43.700;11.820;2023-04-24T09:24:30;0.98;;;0.98;;
46282;SDS011;32017;43.700;11.820;2023-04-24T09:26:57;1.55;;;1.02;;
46282;SDS011;32017;43.700;11.820;2023-04-24T09:29:18;1.15;;;1.10;;
46282;SDS011;32017;43.700;11.820;2023-04-24T09:31:39;1.00;;;1.00;;
46282;SDS011;32017;43.700;11.820;2023-04-24T09:34:00;1.00;;;1.00;;
46282;SDS011;32017;43.700;11.820;2023-04-24T09:36:28;1.30;;;1.20;;
46282;SDS011;32017;43.700;11.820;2023-04-24T09:38:49;1.50;;;1.00;;
46282;SDS011;32017;43.700;11.820;2023-04-24T09:41:13;2.03;;;1.42;;
46282;SDS011;32017;43.700;11.820;2023-04-24T09:43:34;1.55;;;1.10;;
46282;SDS011;32017;43.700;11.820;2023-04-24T09:45:55;1.00;;;0.90;;
46282;SDS011;32017;43.700;11.820;2023-04-24T09:48:17;0.90;;;0.90;;
46282;SDS011;32017;43.700;11.820;2023-04-24T09:50:38;4.32;;;1.63;;
46282;SDS011;32017;43.700;11.820;2023-04-24T09:52:59;1.60;;;1.00;;
46282;SDS011;32017;43.700;11.820;2023-04-24T09:55:22;1.35;;;1.20;;
46282;SDS011;32017;43.700;11.820;2023-04-24T10:00:08;1.38;;;1.33;;
46282;SDS011;32017;43.700;11.820;2023-04-24T10:02:30;2.50;;;1.00;;
46282;SDS011;32017;43.700;11.820;2023-04-24T10:04:55;1.88;;;1.40;;
46282;SDS011;32017;43.700;11.820;2023-04-24T10:07:16;1.42;;;1.20;;
46282;SDS011;32017;43.700;11.820;2023-04-24T10:09:36;1.02;;;0.93;;
46282;SDS011;32017;43.700;11.820;2023-04-24T10:11:56;1.40;;;1.10;;
46282;SDS011;32017;43.700;11.820;2023-04-24T10:14:18;0.90;;;0.90;;
46282;SDS011;32017;43.700;11.820;2023-04-24T10:16:39;1.37;;;1.10;;
46282;SDS011;32017;43.700;11.820;2023-04-24T10:19:00;1.05;;;1.00;;
46282;SDS011;32017;43.700;11.820;2023-04-24T10:21:20;1.30;;;1.20;;
46282;SDS011;32017;43.700;11.820;2023-04-24T10:23:41;1.67;;;1.05;;
46282;SDS011;32017;43.700;11.820;2023-04-24T10:26:02;1.40;;;1.30;;
46282;SDS011;32017;43.700;11.820;2023-04-24T10:28:23;0.90;;;0.90;;
46282;SDS011;32017;43.700;11.820;2023-04-24T10:30:44;1.00;;;1.00;;
46282;SDS011;32017;43.700;11.820;2023-04-24T10:33:06;1.77;;;1.25;;
46282;SDS011;32017;43.700;11.820;2023-04-24T10:35:29;3.22;;;2.15;;
46282;SDS011;32017;43.700;11.820;2023-04-24T10:37:51;6.43;;;1.42;;
46282;SDS011;32017;43.700;11.820;2023-04-24T10:40:17;2.97;;;1.77;;
46282;SDS011;32017;43.700;11.820;2023-04-24T10:42:42;1.98;;;1.13;;
46282;SDS011;32017;43.700;11.820;2023-04-24T10:45:18;2.45;;;1.65;;
46282;SDS011;32017;43.700;11.820;2023-04-24T10:47:40;4.13;;;2.22;;
46282;SDS011;32017;43.700;11.820;2023-04-24T10:50:01;1.13;;;1.00;;
46282;SDS011;32017;43.700;11.820;2023-04-24T10:52:21;1.88;;;1.77;;
46282;SDS011;32017;43.700;11.820;2023-04-24T10:59:41;3.25;;;1.20;;
46282;SDS011;32017;43.700;11.820;2023-04-24T11:02:01;1.45;;;1.35;;
46282;SDS011;32017;43.700;11.820;2023-04-24T11:04:32;1.95;;;1.33;;
46282;SDS011;32017;43.700;11.820;2023-04-24T11:06:53;2.92;;;1.00;;
46282;SDS011;32017;43.700;11.820;2023-04-24T11:09:14;2.58;;;1.80;;
46282;SDS011;32017;43.700;11.820;2023-04-24T11:11:36;4.68;;;1.70;;
46282;SDS011;32017;43.700;11.820;2023-04-24T11:18:43;1.45;;;1.10;;
46282;SDS011;32017;43.700;11.820;2023-04-24T11:21:10;1.98;;;1.02;;
46282;SDS011;32017;43.700;11.820;2023-04-24T11:23:35;1.15;;;1.00;;
46282;SDS011;32017;43.700;11.820;2023-04-24T11:28:51;3.55;;;1.48;;
46282;SDS011;32017;43.700;11.820;2023-04-24T11:33:50;2.20;;;2.03;;
46282;SDS011;32017;43.700;11.820;2023-04-24T11:36:10;2.05;;;0.90;;
46282;SDS011;32017;43.700;11.820;2023-04-24T11:38:30;2.33;;;2.13;;
46282;SDS011;32017;43.700;11.820;2023-04-24T11:40:51;3.38;;;1.25;;
46282;SDS011;32017;43.700;11.820;2023-04-24T11:43:12;2.25;;;1.33;;
46282;SDS011;32017;43.700;11.820;2023-04-24T11:45:34;2.90;;;1.23;;
46282;SDS011;32017;43.700;11.820;2023-04-24T11:47:54;2.78;;;1.58;;
46282;SDS011;32017;43.700;11.820;2023-04-24T11:50:15;1.48;;;1.20;;
46282;SDS011;32017;43.700;11.820;2023-04-24T11:52:46;2.50;;;1.20;;
46282;SDS011;32017;43.700;11.820;2023-04-24T11:55:28;4.05;;;1.63;;
46282;SDS011;32017;43.700;11.820;2023-04-24T11:57:50;4.32;;;1.20;;
46282;SDS011;32017;43.700;11.820;2023-04-24T12:00:22;2.22;;;1.33;;
46282;SDS011;32017;43.700;11.820;2023-04-24T12:02:43;1.23;;;1.13;;
46282;SDS011;32017;43.700;11.820;2023-04-24T12:05:04;2.22;;;1.13;;
46282;SDS011;32017;43.700;11.820;2023-04-24T12:07:24;2.38;;;1.30;;
46282;SDS011;32017;43.700;11.820;2023-04-24T12:09:45;1.30;;;1.10;;
46282;SDS011;32017;43.700;11.820;2023-04-24T12:12:06;2.75;;;1.63;;
46282;SDS011;32017;43.700;11.820;2023-04-24T12:14:26;1.00;;;1.00;;
46282;SDS011;32017;43.700;11.820;2023-04-24T12:16:47;2.05;;;1.00;;
46282;SDS011;32017;43.700;11.820;2023-04-24T12:19:08;3.13;;;1.30;;
46282;SDS011;32017;43.700;11.820;2023-04-24T12:21:28;4.93;;;1.30;;
46282;SDS011;32017;43.700;11.820;2023-04-24T12:23:49;1.45;;;1.25;;
46282;SDS011;32017;43.700;11.820;2023-04-24T12:26:10;1.55;;;1.27;;
46282;SDS011;32017;43.700;11.820;2023-04-24T12:28:36;6.00;;;1.20;;
46282;SDS011;32017;43.700;11.820;2023-04-24T12:30:57;6.30;;;1.45;;
46282;SDS011;32017;43.700;11.820;2023-04-24T12:33:19;2.55;;;1.08;;
46282;SDS011;32017;43.700;11.820;2023-04-24T12:35:40;2.85;;;1.25;;
46282;SDS011;32017;43.700;11.820;2023-04-24T12:38:07;3.70;;;1.20;;
46282;SDS011;32017;43.700;11.820;2023-04-24T12:40:28;3.28;;;0.90;;
46282;SDS011;32017;43.700;11.820;2023-04-24T12:42:51;1.17;;;0.90;;
46282;SDS011;32017;43.700;11.820;2023-04-24T12:45:11;5.03;;;1.67;;
46282;SDS011;32017;43.700;11.820;2023-04-24T12:47:31;5.18;;;1.85;;
46282;SDS011;32017;43.700;11.820;2023-04-24T12:49:52;4.43;;;1.00;;
46282;SDS011;32017;43.700;11.820;2023-04-24T12:52:12;3.28;;;1.10;;
46282;SDS011;32017;43.700;11.820;2023-04-24T12:54:32;0.88;;;0.88;;
46282;SDS011;32017;43.700;11.820;2023-04-24T12:56:52;1.85;;;1.13;;
46282;SDS011;32017;43.700;11.820;2023-04-24T12:59:12;2.60;;;1.70;;
46282;SDS011;32017;43.700;11.820;2023-04-24T13:01:32;2.80;;;1.38;;
46282;SDS011;32017;43.700;11.820;2023-04-24T13:03:52;1.23;;;1.23;;
46282;SDS011;32017;43.700;11.820;2023-04-24T13:06:13;2.15;;;1.58;;
46282;SDS011;32017;43.700;11.820;2023-04-24T13:08:33;2.63;;;1.20;;
46282;SDS011;32017;43.700;11.820;2023-04-24T13:10:53;1.40;;;1.20;;
46282;SDS011;32017;43.700;11.820;2023-04-24T13:13:13;1.40;;;1.00;;
46282;SDS011;32017;43.700;11.820;2023-04-24T13:15:34;0.90;;;0.90;;
46282;SDS011;32017;43.700;11.820;2023-04-24T13:17:54;1.58;;;0.90;;
46282;SDS011;32017;43.700;11.820;2023-04-24T13:20:14;1.10;;;1.00;;
46282;SDS011;32017;43.700;11.820;2023-04-24T13:22:35;1.38;;;1.25;;
46282;SDS011;32017;43.700;11.820;2023-04-24T13:24:56;3.33;;;1.10;;
46282;SDS011;32017;43.700;11.820;2023-04-24T13:27:17;4.97;;;1.10;;
46282;SDS011;32017;43.700;11.820;2023-04-24T13:29:37;1.38;;;1.10;;
46282;SDS011;32017;43.700;11.820;2023-04-24T13:31:57;1.35;;;1.10;;
46282;SDS011;32017;43.700;11.820;2023-04-24T13:34:17;6.88;;;1.60;;
46282;SDS011;32017;43.700;11.820;2023-04-24T13:36:38;3.33;;;1.13;;
46282;SDS011;32017;43.700;11.820;2023-04-24T13:38:58;1.70;;;0.90;;
46282;SDS011;32017;43.700;11.820;2023-04-24T13:41:18;1.25;;;1.15;;
46282;SDS011;32017;43.700;11.820;2023-04-24T13:43:38;2.45;;;1.17;;
46282;SDS011;32017;43.700;11.820;2023-04-24T13:48:22;0.95;;;0.95;;
46282;SDS011;32017;43.700;11.820;2023-04-24T13:50:42;4.13;;;1.65;;
46282;SDS011;32017;43.700;11.820;2023-04-24T13:53:03;2.30;;;1.00;;
46282;SDS011;32017;43.700;11.820;2023-04-24T13:55:23;2.15;;;0.90;;
46282;SDS011;32017;43.700;11.820;2023-04-24T13:57:45;2.88;;;1.23;;
46282;SDS011;32017;43.700;11.820;2023-04-24T14:00:05;2.20;;;0.95;;
46282;SDS011;32017;43.700;11.820;2023-04-24T14:02:29;2.38;;;1.42;;
46282;SDS011;32017;43.700;11.820;2023-04-24T14:04:49;3.03;;;0.90;;
46282;SDS011;32017;43.700;11.820;2023-04-24T14:07:10;0.90;;;0.90;;
46282;SDS011;32017;43.700;11.820;2023-04-24T14:09:30;2.50;;;1.52;;
46282;SDS011;32017;43.700;11.820;2023-04-24T14:11:51;3.00;;;1.02;;
46282;SDS011;32017;43.700;11.820;2023-04-24T14:14:11;2.30;;;1.33;;
46282;SDS011;32017;43.700;11.820;2023-04-24T14:16:31;2.42;;;1.00;;